sensor_id;sensor_type;location;lat;lon;timestamp;P1;durP1;ratioP1;P2;durP2;ratioP2
10174;SDS011;18221;38.704;0.152;2023-05-29T00:02:26;16.13;;;10.43;;
10174;SDS011;18221;38.704;0.152;2023-05-29T00:04:54;20.23;;;10.77;;
10174;SDS011;18221;38.704;0.152;2023-05-29T00:07:22;19.13;;;11.17;;
10174;SDS011;18221;38.704;0.152;2023-05-29T00:09:50;17.57;;;10.80;;
10174;SDS011;18221;38.704;0.152;2023-05-29T00:12:19;20.20;;;10.87;;
10174;SDS011;18221;38.704;0.152;2023-05-29T00:14:49;20.57;;;11.53;;
10174;SDS011;18221;38.704;0.152;2023-05-29T00:17:17;20.60;;;10.43;;
10174;SDS011;18221;38.704;0.152;2023-05-29T00:19:45;20.77;;;10.00;;
10174;SDS011;18221;38.704;0.152;2023-05-29T00:22:14;15.70;;;10.20;;
10174;SDS011;18221;38.704;0.152;2023-05-29T00:24:42;21.63;;;11.00;;
10174;SDS011;18221;38.704;0.152;2023-05-29T00:27:10;16.87;;;9.93;;
10174;SDS011;18221;38.704;0.152;2023-05-29T00:29:39;16.03;;;9.77;;
10174;SDS011;18221;38.704;0.152;2023-05-29T00:32:09;19.00;;;10.63;;
10174;SDS011;18221;38.704;0.152;2023-05-29T00:34:37;17.00;;;10.90;;
10174;SDS011;18221;38.704;0.152;2023-05-29T00:37:07;16.03;;;10.43;;
10174;SDS011;18221;38.704;0.152;2023-05-29T00:39:35;17.80;;;10.57;;
10174;SDS011;18221;38.704;0.152;2023-05-29T00:42:03;16.77;;;10.20;;
10174;SDS011;18221;38.704;0.152;2023-05-29T00:44:31;21.47;;;10.60;;
10174;SDS011;18221;38.704;0.152;2023-05-29T00:47:01;18.60;;;10.40;;
10174;SDS011;18221;38.704;0.152;2023-05-29T00:49:31;18.43;;;10.43;;
10174;SDS011;18221;38.704;0.152;2023-05-29T00:52:00;20.50;;;10.70;;
10174;SDS011;18221;38.704;0.152;2023-05-29T00:54:29;17.80;;;10.73;;
10174;SDS011;18221;38.704;0.152;2023-05-29T00:56:59;15.93;;;10.43;;
10174;SDS011;18221;38.704;0.152;2023-05-29T00:59:30;29.70;;;11.90;;
10174;SDS011;18221;38.704;0.152;2023-05-29T01:01:59;25.43;;;11.90;;
10174;SDS011;18221;38.704;0.152;2023-05-29T01:04:30;22.23;;;12.07;;
10174;SDS011;18221;38.704;0.152;2023-05-29T01:06:59;22.90;;;11.13;;
10174;SDS011;18221;38.704;0.152;2023-05-29T01:09:29;19.90;;;10.57;;
10174;SDS011;18221;38.704;0.152;2023-05-29T01:12:03;20.57;;;9.67;;
10174;SDS011;18221;38.704;0.152;2023-05-29T01:14:54;19.53;;;9.57;;
10174;SDS011;18221;38.704;0.152;2023-05-29T01:17:40;16.77;;;9.47;;
10174;SDS011;18221;38.704;0.152;2023-05-29T01:20:30;16.43;;;9.23;;
10174;SDS011;18221;38.704;0.152;2023-05-29T01:23:08;15.07;;;9.00;;
10174;SDS011;18221;38.704;0.152;2023-05-29T01:26:11;11.00;;;7.87;;
10174;SDS011;18221;38.704;0.152;2023-05-29T01:29:02;16.30;;;7.33;;
10174;SDS011;18221;38.704;0.152;2023-05-29T01:31:34;11.57;;;6.73;;
10174;SDS011;18221;38.704;0.152;2023-05-29T01:34:03;11.63;;;6.33;;
10174;SDS011;18221;38.704;0.152;2023-05-29T01:36:32;13.60;;;6.33;;
10174;SDS011;18221;38.704;0.152;2023-05-29T01:39:01;12.00;;;6.50;;
10174;SDS011;18221;38.704;0.152;2023-05-29T01:41:30;11.13;;;5.83;;
10174;SDS011;18221;38.704;0.152;2023-05-29T01:44:02;13.97;;;6.30;;
10174;SDS011;18221;38.704;0.152;2023-05-29T01:46:34;11.33;;;5.23;;
10174;SDS011;18221;38.704;0.152;2023-05-29T01:49:04;13.20;;;5.40;;
10174;SDS011;18221;38.704;0.152;2023-05-29T01:51:33;8.13;;;4.63;;
10174;SDS011;18221;38.704;0.152;2023-05-29T01:54:01;12.97;;;5.20;;
10174;SDS011;18221;38.704;0.152;2023-05-29T01:56:30;9.80;;;4.40;;
10174;SDS011;18221;38.704;0.152;2023-05-29T01:59:00;7.73;;;4.60;;
10174;SDS011;18221;38.704;0.152;2023-05-29T02:01:30;12.00;;;4.70;;
10174;SDS011;18221;38.704;0.152;2023-05-29T02:03:58;10.63;;;5.50;;
10174;SDS011;18221;38.704;0.152;2023-05-29T02:06:26;12.33;;;5.37;;
10174;SDS011;18221;38.704;0.152;2023-05-29T02:08:56;8.17;;;4.73;;
10174;SDS011;18221;38.704;0.152;2023-05-29T02:11:24;9.53;;;4.87;;
10174;SDS011;18221;38.704;0.152;2023-05-29T02:13:54;8.13;;;4.60;;
10174;SDS011;18221;38.704;0.152;2023-05-29T02:16:22;10.80;;;5.10;;
10174;SDS011;18221;38.704;0.152;2023-05-29T02:18:53;7.60;;;4.63;;
10174;SDS011;18221;38.704;0.152;2023-05-29T02:21:21;6.17;;;4.20;;
10174;SDS011;18221;38.704;0.152;2023-05-29T02:23:49;6.90;;;4.17;;
10174;SDS011;18221;38.704;0.152;2023-05-29T02:26:17;8.97;;;4.63;;
10174;SDS011;18221;38.704;0.152;2023-05-29T02:28:46;8.17;;;4.33;;
10174;SDS011;18221;38.704;0.152;2023-05-29T02:31:15;7.30;;;4.00;;
10174;SDS011;18221;38.704;0.152;2023-05-29T02:33:43;6.40;;;3.90;;
10174;SDS011;18221;38.704;0.152;2023-05-29T02:36:11;6.13;;;3.87;;
10174;SDS011;18221;38.704;0.152;2023-05-29T02:38:41;6.73;;;4.07;;
10174;SDS011;18221;38.704;0.152;2023-05-29T02:41:09;6.13;;;4.13;;
10174;SDS011;18221;38.704;0.152;2023-05-29T02:43:37;6.17;;;3.77;;
10174;SDS011;18221;38.704;0.152;2023-05-29T02:46:06;6.50;;;3.70;;
10174;SDS011;18221;38.704;0.152;2023-05-29T02:48:35;6.00;;;4.20;;
10174;SDS011;18221;38.704;0.152;2023-05-29T02:51:03;5.80;;;4.13;;
10174;SDS011;18221;38.704;0.152;2023-05-29T02:53:31;7.00;;;4.00;;
10174;SDS011;18221;38.704;0.152;2023-05-29T02:55:59;6.90;;;4.00;;
10174;SDS011;18221;38.704;0.152;2023-05-29T02:58:27;4.37;;;3.70;;
10174;SDS011;18221;38.704;0.152;2023-05-29T03:00:56;5.00;;;4.20;;
10174;SDS011;18221;38.704;0.152;2023-05-29T03:03:25;5.73;;;3.90;;
10174;SDS011;18221;38.704;0.152;2023-05-29T03:05:55;6.27;;;3.83;;
10174;SDS011;18221;38.704;0.152;2023-05-29T03:08:23;7.17;;;4.23;;
10174;SDS011;18221;38.704;0.152;2023-05-29T03:10:53;6.57;;;4.20;;
10174;SDS011;18221;38.704;0.152;2023-05-29T03:13:22;7.73;;;4.37;;
10174;SDS011;18221;38.704;0.152;2023-05-29T03:15:50;5.57;;;4.30;;
10174;SDS011;18221;38.704;0.152;2023-05-29T03:18:21;8.27;;;4.40;;
10174;SDS011;18221;38.704;0.152;2023-05-29T03:20:50;8.03;;;4.73;;
10174;SDS011;18221;38.704;0.152;2023-05-29T03:23:20;6.97;;;5.07;;
10174;SDS011;18221;38.704;0.152;2023-05-29T03:28:22;8.67;;;5.00;;
10174;SDS011;18221;38.704;0.152;2023-05-29T03:30:49;7.33;;;5.07;;
10174;SDS011;18221;38.704;0.152;2023-05-29T03:33:18;5.83;;;4.60;;
10174;SDS011;18221;38.704;0.152;2023-05-29T03:35:46;6.73;;;4.53;;
10174;SDS011;18221;38.704;0.152;2023-05-29T03:38:14;7.17;;;4.63;;
10174;SDS011;18221;38.704;0.152;2023-05-29T03:40:44;9.40;;;5.03;;
10174;SDS011;18221;38.704;0.152;2023-05-29T03:43:12;8.53;;;5.13;;
10174;SDS011;18221;38.704;0.152;2023-05-29T03:45:41;8.17;;;4.83;;
10174;SDS011;18221;38.704;0.152;2023-05-29T03:48:09;8.30;;;5.47;;
10174;SDS011;18221;38.704;0.152;2023-05-29T03:50:38;9.93;;;5.63;;
10174;SDS011;18221;38.704;0.152;2023-05-29T03:53:06;10.97;;;5.87;;
10174;SDS011;18221;38.704;0.152;2023-05-29T03:55:34;9.83;;;5.80;;
10174;SDS011;18221;38.704;0.152;2023-05-29T03:58:04;6.63;;;5.00;;
10174;SDS011;18221;38.704;0.152;2023-05-29T04:00:32;9.60;;;5.10;;
10174;SDS011;18221;38.704;0.152;2023-05-29T04:03:01;8.27;;;5.83;;
10174;SDS011;18221;38.704;0.152;2023-05-29T04:05:29;8.40;;;5.47;;
10174;SDS011;18221;38.704;0.152;2023-05-29T04:07:57;9.77;;;5.63;;
10174;SDS011;18221;38.704;0.152;2023-05-29T04:10:26;7.80;;;6.53;;
10174;SDS011;18221;38.704;0.152;2023-05-29T04:12:54;11.50;;;6.20;;
10174;SDS011;18221;38.704;0.152;2023-05-29T04:15:24;11.83;;;6.20;;
10174;SDS011;18221;38.704;0.152;2023-05-29T04:17:53;12.97;;;6.57;;
10174;SDS011;18221;38.704;0.152;2023-05-29T04:20:21;17.13;;;6.63;;
10174;SDS011;18221;38.704;0.152;2023-05-29T04:22:50;10.50;;;6.90;;
10174;SDS011;18221;38.704;0.152;2023-05-29T04:25:18;11.87;;;6.70;;
10174;SDS011;18221;38.704;0.152;2023-05-29T04:27:46;12.97;;;7.57;;
10174;SDS011;18221;38.704;0.152;2023-05-29T04:30:15;15.93;;;7.60;;
10174;SDS011;18221;38.704;0.152;2023-05-29T04:32:45;11.37;;;7.03;;
10174;SDS011;18221;38.704;0.152;2023-05-29T04:35:13;11.30;;;6.93;;
10174;SDS011;18221;38.704;0.152;2023-05-29T04:37:41;11.87;;;6.93;;
10174;SDS011;18221;38.704;0.152;2023-05-29T04:40:09;12.10;;;6.70;;
10174;SDS011;18221;38.704;0.152;2023-05-29T04:42:42;10.97;;;6.70;;
10174;SDS011;18221;38.704;0.152;2023-05-29T04:45:11;12.20;;;6.57;;
10174;SDS011;18221;38.704;0.152;2023-05-29T04:47:40;10.70;;;6.30;;
10174;SDS011;18221;38.704;0.152;2023-05-29T04:50:11;11.67;;;5.77;;
10174;SDS011;18221;38.704;0.152;2023-05-29T04:52:41;10.43;;;6.60;;
10174;SDS011;18221;38.704;0.152;2023-05-29T04:55:09;11.13;;;6.50;;
10174;SDS011;18221;38.704;0.152;2023-05-29T04:57:38;8.60;;;5.70;;
10174;SDS011;18221;38.704;0.152;2023-05-29T05:00:06;9.17;;;6.90;;
10174;SDS011;18221;38.704;0.152;2023-05-29T05:02:40;10.33;;;6.30;;
10174;SDS011;18221;38.704;0.152;2023-05-29T05:05:09;9.43;;;5.83;;
10174;SDS011;18221;38.704;0.152;2023-05-29T05:10:13;9.50;;;5.77;;
10174;SDS011;18221;38.704;0.152;2023-05-29T05:12:41;7.17;;;5.47;;
10174;SDS011;18221;38.704;0.152;2023-05-29T05:15:09;8.50;;;5.50;;
10174;SDS011;18221;38.704;0.152;2023-05-29T05:17:38;8.37;;;4.73;;
10174;SDS011;18221;38.704;0.152;2023-05-29T05:20:06;6.13;;;4.87;;
10174;SDS011;18221;38.704;0.152;2023-05-29T05:22:38;7.70;;;5.20;;
10174;SDS011;18221;38.704;0.152;2023-05-29T05:25:06;9.50;;;5.03;;
10174;SDS011;18221;38.704;0.152;2023-05-29T05:27:35;10.23;;;5.70;;
10174;SDS011;18221;38.704;0.152;2023-05-29T05:30:03;6.90;;;4.90;;
10174;SDS011;18221;38.704;0.152;2023-05-29T05:32:33;8.60;;;4.87;;
10174;SDS011;18221;38.704;0.152;2023-05-29T05:35:07;8.43;;;5.03;;
10174;SDS011;18221;38.704;0.152;2023-05-29T05:37:38;8.70;;;4.80;;
10174;SDS011;18221;38.704;0.152;2023-05-29T05:40:07;7.77;;;4.80;;
10174;SDS011;18221;38.704;0.152;2023-05-29T05:42:35;8.73;;;4.90;;
10174;SDS011;18221;38.704;0.152;2023-05-29T05:45:04;8.63;;;5.17;;
10174;SDS011;18221;38.704;0.152;2023-05-29T05:47:33;15.90;;;13.13;;
10174;SDS011;18221;38.704;0.152;2023-05-29T05:50:01;20.53;;;16.57;;
10174;SDS011;18221;38.704;0.152;2023-05-29T05:52:30;13.27;;;11.87;;
10174;SDS011;18221;38.704;0.152;2023-05-29T05:55:00;10.90;;;7.57;;
10174;SDS011;18221;38.704;0.152;2023-05-29T05:57:28;9.67;;;7.40;;
10174;SDS011;18221;38.704;0.152;2023-05-29T05:59:57;7.60;;;5.93;;
10174;SDS011;18221;38.704;0.152;2023-05-29T06:02:25;7.70;;;5.70;;
10174;SDS011;18221;38.704;0.152;2023-05-29T06:04:54;8.77;;;5.27;;
10174;SDS011;18221;38.704;0.152;2023-05-29T06:07:22;8.63;;;5.03;;
10174;SDS011;18221;38.704;0.152;2023-05-29T06:09:50;6.93;;;5.47;;
10174;SDS011;18221;38.704;0.152;2023-05-29T06:12:19;8.27;;;5.23;;
10174;SDS011;18221;38.704;0.152;2023-05-29T06:14:47;6.00;;;4.53;;
10174;SDS011;18221;38.704;0.152;2023-05-29T06:17:15;7.77;;;4.80;;
10174;SDS011;18221;38.704;0.152;2023-05-29T06:19:43;8.03;;;5.10;;
10174;SDS011;18221;38.704;0.152;2023-05-29T06:22:11;5.47;;;4.43;;
10174;SDS011;18221;38.704;0.152;2023-05-29T06:24:41;7.53;;;4.77;;
10174;SDS011;18221;38.704;0.152;2023-05-29T06:27:09;6.57;;;4.20;;
10174;SDS011;18221;38.704;0.152;2023-05-29T06:29:38;6.90;;;5.07;;
10174;SDS011;18221;38.704;0.152;2023-05-29T06:32:07;7.67;;;4.63;;
10174;SDS011;18221;38.704;0.152;2023-05-29T06:34:35;5.87;;;4.57;;
10174;SDS011;18221;38.704;0.152;2023-05-29T06:37:03;5.77;;;4.30;;
10174;SDS011;18221;38.704;0.152;2023-05-29T06:39:32;6.57;;;4.67;;
10174;SDS011;18221;38.704;0.152;2023-05-29T06:42:00;5.27;;;4.30;;
10174;SDS011;18221;38.704;0.152;2023-05-29T06:44:28;9.23;;;4.63;;
10174;SDS011;18221;38.704;0.152;2023-05-29T06:46:58;7.63;;;4.40;;
10174;SDS011;18221;38.704;0.152;2023-05-29T06:49:27;6.43;;;4.37;;
10174;SDS011;18221;38.704;0.152;2023-05-29T06:51:55;5.30;;;4.30;;
10174;SDS011;18221;38.704;0.152;2023-05-29T06:54:23;6.80;;;4.27;;
10174;SDS011;18221;38.704;0.152;2023-05-29T06:56:51;6.63;;;4.40;;
10174;SDS011;18221;38.704;0.152;2023-05-29T06:59:19;5.47;;;4.40;;
10174;SDS011;18221;38.704;0.152;2023-05-29T07:01:47;6.73;;;4.90;;
10174;SDS011;18221;38.704;0.152;2023-05-29T07:04:17;5.87;;;4.20;;
10174;SDS011;18221;38.704;0.152;2023-05-29T07:06:45;5.47;;;4.47;;
10174;SDS011;18221;38.704;0.152;2023-05-29T07:09:13;5.30;;;4.23;;
10174;SDS011;18221;38.704;0.152;2023-05-29T07:11:47;5.60;;;4.30;;
10174;SDS011;18221;38.704;0.152;2023-05-29T07:14:22;4.60;;;4.00;;
10174;SDS011;18221;38.704;0.152;2023-05-29T07:16:52;4.97;;;4.13;;
10174;SDS011;18221;38.704;0.152;2023-05-29T07:19:25;6.67;;;4.13;;
10174;SDS011;18221;38.704;0.152;2023-05-29T07:21:54;7.00;;;4.23;;
10174;SDS011;18221;38.704;0.152;2023-05-29T07:26:56;5.33;;;4.70;;
10174;SDS011;18221;38.704;0.152;2023-05-29T07:29:25;6.00;;;4.40;;
10174;SDS011;18221;38.704;0.152;2023-05-29T07:31:53;5.43;;;4.37;;
10174;SDS011;18221;38.704;0.152;2023-05-29T07:34:21;5.97;;;4.07;;
10174;SDS011;18221;38.704;0.152;2023-05-29T07:36:57;4.53;;;3.77;;
10174;SDS011;18221;38.704;0.152;2023-05-29T07:39:29;4.43;;;4.03;;
10174;SDS011;18221;38.704;0.152;2023-05-29T07:41:58;6.67;;;4.40;;
10174;SDS011;18221;38.704;0.152;2023-05-29T07:44:27;11.80;;;4.57;;
10174;SDS011;18221;38.704;0.152;2023-05-29T07:46:55;8.57;;;4.40;;
10174;SDS011;18221;38.704;0.152;2023-05-29T07:49:23;4.90;;;3.97;;
10174;SDS011;18221;38.704;0.152;2023-05-29T07:51:51;6.33;;;4.10;;
10174;SDS011;18221;38.704;0.152;2023-05-29T07:54:21;4.93;;;4.00;;
10174;SDS011;18221;38.704;0.152;2023-05-29T07:56:50;6.53;;;4.20;;
10174;SDS011;18221;38.704;0.152;2023-05-29T07:59:18;10.73;;;4.40;;
10174;SDS011;18221;38.704;0.152;2023-05-29T08:01:47;7.90;;;4.47;;
10174;SDS011;18221;38.704;0.152;2023-05-29T08:04:15;9.80;;;5.23;;
10174;SDS011;18221;38.704;0.152;2023-05-29T08:06:45;8.23;;;4.30;;
10174;SDS011;18221;38.704;0.152;2023-05-29T08:09:13;7.23;;;3.83;;
10174;SDS011;18221;38.704;0.152;2023-05-29T08:11:45;4.47;;;3.90;;
10174;SDS011;18221;38.704;0.152;2023-05-29T08:14:13;9.77;;;4.90;;
10174;SDS011;18221;38.704;0.152;2023-05-29T08:16:42;6.53;;;4.40;;
10174;SDS011;18221;38.704;0.152;2023-05-29T08:19:10;8.93;;;4.50;;
10174;SDS011;18221;38.704;0.152;2023-05-29T08:21:38;10.17;;;4.30;;
10174;SDS011;18221;38.704;0.152;2023-05-29T08:24:06;9.03;;;4.40;;
10174;SDS011;18221;38.704;0.152;2023-05-29T08:26:34;4.83;;;3.70;;
10174;SDS011;18221;38.704;0.152;2023-05-29T08:29:04;6.73;;;4.27;;
10174;SDS011;18221;38.704;0.152;2023-05-29T08:31:33;10.03;;;4.20;;
10174;SDS011;18221;38.704;0.152;2023-05-29T08:34:02;5.33;;;3.77;;
10174;SDS011;18221;38.704;0.152;2023-05-29T08:36:44;7.73;;;4.13;;
10174;SDS011;18221;38.704;0.152;2023-05-29T08:39:13;8.90;;;4.80;;
10174;SDS011;18221;38.704;0.152;2023-05-29T08:41:44;10.73;;;4.50;;
10174;SDS011;18221;38.704;0.152;2023-05-29T08:44:22;10.43;;;5.13;;
10174;SDS011;18221;38.704;0.152;2023-05-29T08:46:57;8.37;;;5.17;;
10174;SDS011;18221;38.704;0.152;2023-05-29T08:49:30;10.07;;;5.27;;
10174;SDS011;18221;38.704;0.152;2023-05-29T08:52:09;10.33;;;5.23;;
10174;SDS011;18221;38.704;0.152;2023-05-29T08:54:43;10.97;;;5.10;;
10174;SDS011;18221;38.704;0.152;2023-05-29T08:57:11;9.27;;;5.80;;
10174;SDS011;18221;38.704;0.152;2023-05-29T08:59:43;7.93;;;5.63;;
10174;SDS011;18221;38.704;0.152;2023-05-29T09:02:14;12.90;;;6.23;;
10174;SDS011;18221;38.704;0.152;2023-05-29T09:04:43;12.03;;;5.70;;
10174;SDS011;18221;38.704;0.152;2023-05-29T09:07:14;10.40;;;5.90;;
10174;SDS011;18221;38.704;0.152;2023-05-29T09:09:44;8.90;;;5.20;;
10174;SDS011;18221;38.704;0.152;2023-05-29T09:12:12;9.50;;;5.50;;
10174;SDS011;18221;38.704;0.152;2023-05-29T09:14:41;12.33;;;5.40;;
10174;SDS011;18221;38.704;0.152;2023-05-29T09:17:12;9.53;;;5.23;;
10174;SDS011;18221;38.704;0.152;2023-05-29T09:19:41;10.43;;;5.50;;
10174;SDS011;18221;38.704;0.152;2023-05-29T09:22:10;9.67;;;4.83;;
10174;SDS011;18221;38.704;0.152;2023-05-29T09:24:42;5.00;;;3.93;;
10174;SDS011;18221;38.704;0.152;2023-05-29T09:27:13;6.30;;;4.63;;
10174;SDS011;18221;38.704;0.152;2023-05-29T09:29:44;4.90;;;4.23;;
10174;SDS011;18221;38.704;0.152;2023-05-29T09:32:13;6.67;;;4.50;;
10174;SDS011;18221;38.704;0.152;2023-05-29T09:34:43;6.20;;;4.30;;
10174;SDS011;18221;38.704;0.152;2023-05-29T09:37:12;7.70;;;4.07;;
10174;SDS011;18221;38.704;0.152;2023-05-29T09:39:46;6.80;;;4.07;;
10174;SDS011;18221;38.704;0.152;2023-05-29T09:42:15;5.20;;;3.53;;
10174;SDS011;18221;38.704;0.152;2023-05-29T09:44:45;5.90;;;4.20;;
10174;SDS011;18221;38.704;0.152;2023-05-29T09:47:18;6.53;;;4.07;;
10174;SDS011;18221;38.704;0.152;2023-05-29T09:49:47;4.93;;;3.67;;
10174;SDS011;18221;38.704;0.152;2023-05-29T09:52:15;7.50;;;4.27;;
10174;SDS011;18221;38.704;0.152;2023-05-29T09:54:49;6.93;;;4.70;;
10174;SDS011;18221;38.704;0.152;2023-05-29T09:57:18;7.23;;;4.43;;
10174;SDS011;18221;38.704;0.152;2023-05-29T09:59:50;6.40;;;4.27;;
10174;SDS011;18221;38.704;0.152;2023-05-29T10:02:20;6.63;;;4.33;;
10174;SDS011;18221;38.704;0.152;2023-05-29T10:04:48;5.10;;;3.93;;
10174;SDS011;18221;38.704;0.152;2023-05-29T10:07:19;11.53;;;5.13;;
10174;SDS011;18221;38.704;0.152;2023-05-29T10:09:54;9.47;;;4.40;;
10174;SDS011;18221;38.704;0.152;2023-05-29T10:12:28;8.03;;;4.40;;
10174;SDS011;18221;38.704;0.152;2023-05-29T10:15:03;5.80;;;4.40;;
10174;SDS011;18221;38.704;0.152;2023-05-29T10:17:38;6.73;;;4.60;;
10174;SDS011;18221;38.704;0.152;2023-05-29T10:20:17;6.57;;;4.30;;
10174;SDS011;18221;38.704;0.152;2023-05-29T10:22:47;5.07;;;4.17;;
10174;SDS011;18221;38.704;0.152;2023-05-29T10:25:19;5.43;;;4.03;;
10174;SDS011;18221;38.704;0.152;2023-05-29T10:27:47;6.37;;;3.90;;
10174;SDS011;18221;38.704;0.152;2023-05-29T10:30:22;7.23;;;4.17;;
10174;SDS011;18221;38.704;0.152;2023-05-29T10:36:15;5.57;;;4.40;;
10174;SDS011;18221;38.704;0.152;2023-05-29T10:38:47;7.40;;;4.90;;
10174;SDS011;18221;38.704;0.152;2023-05-29T10:41:29;5.30;;;4.40;;
10174;SDS011;18221;38.704;0.152;2023-05-29T10:44:04;5.37;;;4.50;;
10174;SDS011;18221;38.704;0.152;2023-05-29T10:47:08;4.70;;;4.10;;
10174;SDS011;18221;38.704;0.152;2023-05-29T10:49:49;6.50;;;4.50;;
10174;SDS011;18221;38.704;0.152;2023-05-29T10:52:18;6.53;;;4.63;;
10174;SDS011;18221;38.704;0.152;2023-05-29T10:54:51;5.70;;;4.17;;
10174;SDS011;18221;38.704;0.152;2023-05-29T10:57:22;7.23;;;4.40;;
10174;SDS011;18221;38.704;0.152;2023-05-29T10:59:58;8.27;;;5.00;;
10174;SDS011;18221;38.704;0.152;2023-05-29T11:02:38;5.13;;;4.30;;
10174;SDS011;18221;38.704;0.152;2023-05-29T11:05:23;5.63;;;4.07;;
10174;SDS011;18221;38.704;0.152;2023-05-29T11:07:52;5.97;;;4.77;;
10174;SDS011;18221;38.704;0.152;2023-05-29T11:13:25;7.27;;;4.70;;
10174;SDS011;18221;38.704;0.152;2023-05-29T11:16:12;8.43;;;4.70;;
10174;SDS011;18221;38.704;0.152;2023-05-29T11:18:47;6.63;;;4.40;;
10174;SDS011;18221;38.704;0.152;2023-05-29T11:21:22;7.97;;;4.80;;
10174;SDS011;18221;38.704;0.152;2023-05-29T11:24:00;7.87;;;5.10;;
10174;SDS011;18221;38.704;0.152;2023-05-29T11:26:31;7.20;;;5.23;;
10174;SDS011;18221;38.704;0.152;2023-05-29T11:29:01;6.70;;;4.53;;
10174;SDS011;18221;38.704;0.152;2023-05-29T11:31:31;7.10;;;4.50;;
10174;SDS011;18221;38.704;0.152;2023-05-29T11:34:04;6.90;;;4.40;;
10174;SDS011;18221;38.704;0.152;2023-05-29T11:36:40;7.93;;;4.70;;
10174;SDS011;18221;38.704;0.152;2023-05-29T11:39:08;6.23;;;4.30;;
10174;SDS011;18221;38.704;0.152;2023-05-29T11:41:37;9.73;;;4.00;;
10174;SDS011;18221;38.704;0.152;2023-05-29T11:44:06;7.23;;;4.67;;
10174;SDS011;18221;38.704;0.152;2023-05-29T11:46:35;7.13;;;4.80;;
10174;SDS011;18221;38.704;0.152;2023-05-29T11:49:04;8.43;;;4.37;;
10174;SDS011;18221;38.704;0.152;2023-05-29T11:51:34;8.50;;;4.10;;
10174;SDS011;18221;38.704;0.152;2023-05-29T11:54:02;8.93;;;4.77;;
10174;SDS011;18221;38.704;0.152;2023-05-29T11:56:30;8.47;;;4.73;;
10174;SDS011;18221;38.704;0.152;2023-05-29T11:58:58;9.80;;;4.73;;
10174;SDS011;18221;38.704;0.152;2023-05-29T12:01:31;7.57;;;4.80;;
10174;SDS011;18221;38.704;0.152;2023-05-29T12:04:01;12.20;;;5.20;;
10174;SDS011;18221;38.704;0.152;2023-05-29T12:06:43;11.07;;;5.00;;
10174;SDS011;18221;38.704;0.152;2023-05-29T12:09:22;7.63;;;4.97;;
10174;SDS011;18221;38.704;0.152;2023-05-29T12:11:53;8.93;;;5.37;;
10174;SDS011;18221;38.704;0.152;2023-05-29T12:14:27;9.63;;;4.70;;
10174;SDS011;18221;38.704;0.152;2023-05-29T12:16:56;10.30;;;4.80;;
10174;SDS011;18221;38.704;0.152;2023-05-29T12:19:25;10.67;;;5.50;;
10174;SDS011;18221;38.704;0.152;2023-05-29T12:21:54;8.47;;;4.47;;
10174;SDS011;18221;38.704;0.152;2023-05-29T12:24:23;8.90;;;5.23;;
10174;SDS011;18221;38.704;0.152;2023-05-29T12:26:54;11.70;;;5.30;;
10174;SDS011;18221;38.704;0.152;2023-05-29T12:29:29;9.57;;;5.20;;
10174;SDS011;18221;38.704;0.152;2023-05-29T12:31:57;9.80;;;5.03;;
10174;SDS011;18221;38.704;0.152;2023-05-29T12:34:27;10.47;;;5.60;;
10174;SDS011;18221;38.704;0.152;2023-05-29T12:37:06;8.20;;;5.17;;
10174;SDS011;18221;38.704;0.152;2023-05-29T12:39:39;11.67;;;5.47;;
10174;SDS011;18221;38.704;0.152;2023-05-29T12:42:07;12.40;;;4.80;;
10174;SDS011;18221;38.704;0.152;2023-05-29T12:44:37;8.60;;;5.43;;
10174;SDS011;18221;38.704;0.152;2023-05-29T12:47:05;7.20;;;4.67;;
10174;SDS011;18221;38.704;0.152;2023-05-29T12:49:35;9.13;;;4.70;;
10174;SDS011;18221;38.704;0.152;2023-05-29T12:52:04;10.73;;;4.87;;
10174;SDS011;18221;38.704;0.152;2023-05-29T12:54:35;10.03;;;5.90;;
10174;SDS011;18221;38.704;0.152;2023-05-29T12:57:04;9.23;;;5.43;;
10174;SDS011;18221;38.704;0.152;2023-05-29T12:59:34;8.17;;;5.03;;
10174;SDS011;18221;38.704;0.152;2023-05-29T13:02:02;8.37;;;5.70;;
10174;SDS011;18221;38.704;0.152;2023-05-29T13:04:32;7.63;;;5.10;;
10174;SDS011;18221;38.704;0.152;2023-05-29T13:07:02;10.20;;;5.00;;
10174;SDS011;18221;38.704;0.152;2023-05-29T13:09:31;9.03;;;4.73;;
10174;SDS011;18221;38.704;0.152;2023-05-29T13:11:59;10.47;;;4.77;;
10174;SDS011;18221;38.704;0.152;2023-05-29T13:14:28;6.50;;;4.50;;
10174;SDS011;18221;38.704;0.152;2023-05-29T13:16:56;8.17;;;4.97;;
10174;SDS011;18221;38.704;0.152;2023-05-29T13:19:24;9.10;;;5.33;;
10174;SDS011;18221;38.704;0.152;2023-05-29T13:21:53;14.70;;;6.57;;
10174;SDS011;18221;38.704;0.152;2023-05-29T13:24:21;8.70;;;5.53;;
10174;SDS011;18221;38.704;0.152;2023-05-29T13:26:49;8.43;;;5.70;;
10174;SDS011;18221;38.704;0.152;2023-05-29T13:29:17;12.37;;;5.80;;
10174;SDS011;18221;38.704;0.152;2023-05-29T13:31:46;10.43;;;5.40;;
10174;SDS011;18221;38.704;0.152;2023-05-29T13:34:13;8.93;;;5.23;;
10174;SDS011;18221;38.704;0.152;2023-05-29T13:36:41;13.03;;;5.27;;
10174;SDS011;18221;38.704;0.152;2023-05-29T13:39:11;11.03;;;5.80;;
10174;SDS011;18221;38.704;0.152;2023-05-29T13:41:39;9.00;;;4.73;;
10174;SDS011;18221;38.704;0.152;2023-05-29T13:44:07;16.23;;;5.53;;
10174;SDS011;18221;38.704;0.152;2023-05-29T13:46:37;17.70;;;5.80;;
10174;SDS011;18221;38.704;0.152;2023-05-29T13:49:05;10.77;;;4.73;;
10174;SDS011;18221;38.704;0.152;2023-05-29T13:51:33;7.23;;;4.87;;
10174;SDS011;18221;38.704;0.152;2023-05-29T13:54:02;6.40;;;4.30;;
10174;SDS011;18221;38.704;0.152;2023-05-29T13:56:31;6.97;;;4.10;;
10174;SDS011;18221;38.704;0.152;2023-05-29T13:58:59;7.23;;;4.60;;
10174;SDS011;18221;38.704;0.152;2023-05-29T14:01:30;6.73;;;4.40;;
10174;SDS011;18221;38.704;0.152;2023-05-29T14:03:58;13.23;;;4.63;;
10174;SDS011;18221;38.704;0.152;2023-05-29T14:06:27;8.07;;;4.53;;
10174;SDS011;18221;38.704;0.152;2023-05-29T14:08:55;8.87;;;4.60;;
10174;SDS011;18221;38.704;0.152;2023-05-29T14:11:23;10.93;;;4.83;;
10174;SDS011;18221;38.704;0.152;2023-05-29T14:13:53;7.50;;;4.53;;
10174;SDS011;18221;38.704;0.152;2023-05-29T14:16:21;7.33;;;4.40;;
10174;SDS011;18221;38.704;0.152;2023-05-29T14:18:49;8.57;;;4.80;;
10174;SDS011;18221;38.704;0.152;2023-05-29T14:21:17;8.23;;;4.70;;
10174;SDS011;18221;38.704;0.152;2023-05-29T14:23:46;8.30;;;4.67;;
10174;SDS011;18221;38.704;0.152;2023-05-29T14:26:14;8.43;;;5.03;;
10174;SDS011;18221;38.704;0.152;2023-05-29T14:28:42;8.37;;;4.23;;
10174;SDS011;18221;38.704;0.152;2023-05-29T14:31:13;6.97;;;4.53;;
10174;SDS011;18221;38.704;0.152;2023-05-29T14:33:41;9.67;;;4.80;;
10174;SDS011;18221;38.704;0.152;2023-05-29T14:36:09;7.37;;;4.10;;
10174;SDS011;18221;38.704;0.152;2023-05-29T14:38:38;5.57;;;4.00;;
10174;SDS011;18221;38.704;0.152;2023-05-29T14:41:06;8.57;;;4.57;;
10174;SDS011;18221;38.704;0.152;2023-05-29T14:43:37;9.23;;;4.70;;
10174;SDS011;18221;38.704;0.152;2023-05-29T14:46:09;8.33;;;4.33;;
10174;SDS011;18221;38.704;0.152;2023-05-29T14:48:40;7.37;;;4.10;;
10174;SDS011;18221;38.704;0.152;2023-05-29T14:51:08;9.37;;;4.43;;
10174;SDS011;18221;38.704;0.152;2023-05-29T14:53:36;9.67;;;4.80;;
10174;SDS011;18221;38.704;0.152;2023-05-29T14:56:04;7.30;;;4.90;;
10174;SDS011;18221;38.704;0.152;2023-05-29T14:58:34;5.57;;;4.43;;
10174;SDS011;18221;38.704;0.152;2023-05-29T15:01:02;20.53;;;6.20;;
10174;SDS011;18221;38.704;0.152;2023-05-29T15:03:31;6.20;;;4.13;;
10174;SDS011;18221;38.704;0.152;2023-05-29T15:06:02;7.90;;;4.23;;
10174;SDS011;18221;38.704;0.152;2023-05-29T15:08:31;7.50;;;3.93;;
10174;SDS011;18221;38.704;0.152;2023-05-29T15:11:00;7.40;;;4.90;;
10174;SDS011;18221;38.704;0.152;2023-05-29T15:13:29;6.47;;;4.10;;
10174;SDS011;18221;38.704;0.152;2023-05-29T15:15:57;7.43;;;4.30;;